• Join FlightAware (Why Join?)
  • Login
  • US Flag 
10:28PM EDT


 

Airport Tracker/Info


-or-


 

Live Flight TrackerFlight Track Log ✈ ASQ5967 ✈ 21-Apr-2013 ✈ KBOS - KIAD

Flight Track Log - Related Links

Times and Time Zones

All times are in EDT time to prevent confusion due to time zone crossing. See the ASQ5967 flight status page for this flight to view local times or setup timezone preferences in your user account.

Time Position Orientation Groundspeed Altitude Reporting Facility
EDT Latitude Longitude Course Direction KTS MPH feet Rate Location/Type
05:00PM 42.3667 -70.9833 240° Southwest 147 169 400  Level KA90
05:02PM 42.3833 -70.9000 75° East 188 216 3,200 2,340 Climbing KA90
05:03PM 42.3833 -70.8000 90° East 268 308 6,100 2,520 Climbing KA90
05:03PM 42.3883 -70.7817 70° East 286 329 6,400 2,520 Climbing Boston Center
05:04PM 42.3272 -70.7221 172° South  Level FlightAware Approximate
05:04PM 42.3372 -70.7211 139° Southeast 263 303 9,300  Level Boston Center
05:05PM 42.2591 -70.7780 228° Southwest  Level FlightAware Approximate
05:05PM 42.2486 -70.7742 204° Southwest 258 297 11,000  Level Boston Center
05:06PM 42.2082 -70.8753 240° Southwest  Level FlightAware Approximate
05:06PM 42.2022 -70.8789 239° Southwest 279 321 13,000  Level Boston Center
05:07PM 42.1953 -70.9997 266° West 305 351 15,300 1,980 Climbing Boston Center
05:08PM 42.1761 -71.1206 258° West 325 374 17,000 1,380 Climbing Boston Center
05:09PM 42.1564 -71.2442 258° West 337 388 18,100 1,320 Climbing Boston Center
05:10PM 42.1411 -71.3706 261° West 343 395 19,700 1,440 Climbing Boston Center
05:11PM 42.1214 -71.4969 258° West 343 395 21,000 1,200 Climbing Boston Center
05:12PM 42.0994 -71.6119 256° West 348 400 22,200 1,140 Climbing Boston Center
05:13PM 42.0772 -71.7381 257° West 354 407 23,300 1,200 Climbing Boston Center
05:14PM 42.0550 -71.8669 257° West 354 407 24,600 1,320 Climbing Boston Center
05:15PM 42.0328 -72.0069 258° West 354 407 26,000 1,440 Climbing Boston Center
05:16PM 42.0122 -72.1272 257° West 354 407 27,500 1,500 Climbing Boston Center
05:17PM 41.9917 -72.2500 257° West 347 399 29,000 1,200 Climbing Boston Center
05:18PM 41.9731 -72.3675 258° West 335 386 30,000 480 Climbing Boston Center
05:19PM 41.9522 -72.4931 257° West 335 386 30,000  Level Boston Center
05:20PM 41.9292 -72.6186 256° West 349 402 30,000  Level Boston Center
05:21PM 41.9081 -72.7442 257° West 349 402 30,000  Level Boston Center
05:22PM 41.8847 -72.8778 257° West 356 410 30,000  Level Boston Center
05:23PM 41.8614 -73.0142 257° West 363 418 30,000  Level Boston Center
05:24PM 41.8314 -73.1450 253° West 368 423 30,000  Level Boston Center
05:25PM 41.7597 -73.2444 226° Southwest 363 418 30,000  Level Boston Center
05:26PM 41.6881 -73.3464 227° Southwest 363 418 30,000  Level Boston Center
05:27PM 41.6186 -73.4397 225° Southwest 368 423 30,000  Level Boston Center
05:29PM 41.5111 -73.5942 227° Southwest 355 409 30,000  Level New York Center
05:30PM 41.4400 -73.6936 226° Southwest 368 423 30,000  Level New York Center
05:31PM 41.3689 -73.7900 226° Southwest 373 429 30,000  Level New York Center
05:32PM 41.2975 -73.8861 225° Southwest 373 429 30,000  Level New York Center
05:33PM 41.2242 -73.9847 225° Southwest 373 429 30,000  Level New York Center
05:34PM 41.1569 -74.0808 227° Southwest 373 429 30,000  Level New York Center
05:35PM 41.0994 -74.1908 235° Southwest 373 429 30,000  Level New York Center
05:36PM 41.0444 -74.2981 236° Southwest 363 418 30,000  Level New York Center
05:37PM 40.9889 -74.4106 237° Southwest 363 418 30,000 -900 Level New York Center
05:38PM 40.9375 -74.5233 239° Southwest 363 418 28,300 -1,020 Descending New York Center
05:39PM 40.8836 -74.6408 239° Southwest 363 418 28,000 -180 Descending New York Center
05:40PM 40.8317 -74.7614 240° Southwest 373 429 28,000  Level New York Center
05:41PM 40.7778 -74.8789 239° Southwest 378 435 28,000  Level New York Center
05:42PM 40.7256 -74.9989 240° Southwest 378 435 28,000  Level New York Center
05:43PM 40.6711 -75.1186 239° Southwest 378 435 28,000  Level New York Center
05:44PM 40.6147 -75.2353 238° Southwest 378 435 28,000 -540 Level New York Center
05:45PM 40.5619 -75.3578 240° Southwest 378 435 27,000 -1,500 Descending New York Center
05:46PM 40.5072 -75.4769 239° Southwest 378 435 25,000 -2,040 Descending New York Center
05:47PM 40.4506 -75.5958 238° Southwest 383 441 23,000 -2,040 Descending New York Center
05:48PM 40.3953 -75.7172 239° Southwest 388 447 21,000 -1,500 Descending New York Center
05:49PM 40.3361 -75.8411 238° Southwest 388 447 20,000 -540 Descending New York Center
05:50PM 40.2742 -75.9669 237° Southwest 399 459 20,000 -300 Level New York Center
05:51PM 40.2167 -76.0906 239° Southwest 399 459 19,400 -840 Descending New York Center
05:52PM 40.1614 -76.2058 238° Southwest 391 450 18,400 -720 Descending New York Center
05:53PM 40.1036 -76.3261 238° Southwest 396 456 18,000 -660 Descending New York Center
05:54PM 40.0525 -76.4361 239° Southwest 396 456 17,100 -900 Descending New York Center
05:56PM 39.9167 -76.7167 238° Southwest 375 432 15,100 -660 Descending Potomac TRACON
05:57PM 39.8667 -76.8333 241° Southwest 380 437 15,100  Level Potomac TRACON
05:58PM 39.8167 -76.9500 241° Southwest 375 432 15,100 -240 Level Potomac TRACON
05:59PM 39.7667 -77.0500 237° Southwest 365 420 14,700 -1,320 Descending Potomac TRACON
06:00PM 39.7167 -77.1667 241° Southwest 353 406 12,500 -1,980 Descending Potomac TRACON
06:01PM 39.6500 -77.2833 233° Southwest 343 395 10,600 -1,440 Descending Potomac TRACON
06:02PM 39.5833 -77.3333 210° Southwest 285 328 9,600 -1,440 Descending Potomac TRACON
06:03PM 39.5167 -77.3500 191° South 275 316 7,700 -1,260 Descending Potomac TRACON
06:04PM 39.4333 -77.3667 189° South 267 307 7,100 -600 Descending Potomac TRACON
06:05PM 39.3667 -77.3667 180° South 253 291 6,500 -960 Descending Potomac TRACON
06:06PM 39.3000 -77.3667 180° South 245 282 5,100 -720 Descending Potomac TRACON
06:07PM 39.2333 -77.3667 180° South 248 285 5,100  Level Potomac TRACON
06:08PM 39.1500 -77.3500 171° South 253 291 5,100 -480 Level Potomac TRACON
06:09PM 39.0833 -77.3500 180° South 246 283 4,200 -540 Descending Potomac TRACON
06:10PM 39.0167 -77.3500 180° South 254 292 4,100 -240 Descending Potomac TRACON
06:11PM 38.9333 -77.3500 180° South 252 290 3,800 -540 Descending Potomac TRACON
06:12PM 38.8667 -77.3667 191° South 240 276 3,000 -600 Descending Potomac TRACON
06:13PM 38.8167 -77.3833 195° South 222 255 2,600 -480 Descending Potomac TRACON
06:14PM 38.8333 -77.4667 284° West 228 262 2,100 -600 Descending Potomac TRACON
06:15PM 38.8833 -77.4667 360° North 154 177 1,500 -600 Descending Potomac TRACON